sensor_id;sensor_type;location;lat;lon;timestamp;P1;durP1;ratioP1;P2;durP2;ratioP2
53503;SDS011;39387;50.998;22.340;2022-10-17T00:00:21;8.40;;;5.68;;
53503;SDS011;39387;50.998;22.340;2022-10-17T00:03:08;9.65;;;6.28;;
53503;SDS011;39387;50.998;22.340;2022-10-17T00:05:38;10.02;;;6.15;;
53503;SDS011;39387;50.998;22.340;2022-10-17T00:08:06;8.65;;;5.85;;
53503;SDS011;39387;50.998;22.340;2022-10-17T00:10:33;9.13;;;5.88;;
53503;SDS011;39387;50.998;22.340;2022-10-17T00:13:01;8.07;;;5.75;;
53503;SDS011;39387;50.998;22.340;2022-10-17T00:15:30;8.73;;;5.72;;
53503;SDS011;39387;50.998;22.340;2022-10-17T00:17:57;9.40;;;5.85;;
53503;SDS011;39387;50.998;22.340;2022-10-17T00:20:25;9.63;;;5.90;;
53503;SDS011;39387;50.998;22.340;2022-10-17T00:22:52;8.73;;;6.05;;
53503;SDS011;39387;50.998;22.340;2022-10-17T00:25:19;9.20;;;6.13;;
53503;SDS011;39387;50.998;22.340;2022-10-17T00:27:46;9.70;;;6.22;;
53503;SDS011;39387;50.998;22.340;2022-10-17T00:30:14;8.60;;;6.07;;
53503;SDS011;39387;50.998;22.340;2022-10-17T00:32:43;10.32;;;6.30;;
53503;SDS011;39387;50.998;22.340;2022-10-17T00:35:11;9.45;;;5.95;;
53503;SDS011;39387;50.998;22.340;2022-10-17T00:37:38;9.25;;;6.32;;
53503;SDS011;39387;50.998;22.340;2022-10-17T00:40:06;8.88;;;6.15;;
53503;SDS011;39387;50.998;22.340;2022-10-17T00:42:34;9.20;;;6.22;;
53503;SDS011;39387;50.998;22.340;2022-10-17T00:45:07;11.02;;;6.35;;
53503;SDS011;39387;50.998;22.340;2022-10-17T00:47:41;9.35;;;5.97;;
53503;SDS011;39387;50.998;22.340;2022-10-17T00:50:11;9.63;;;6.30;;
53503;SDS011;39387;50.998;22.340;2022-10-17T00:52:39;8.35;;;6.05;;
53503;SDS011;39387;50.998;22.340;2022-10-17T00:55:08;8.98;;;5.78;;
53503;SDS011;39387;50.998;22.340;2022-10-17T00:57:38;9.07;;;5.82;;
53503;SDS011;39387;50.998;22.340;2022-10-17T01:00:07;9.02;;;5.88;;
53503;SDS011;39387;50.998;22.340;2022-10-17T01:02:36;8.50;;;5.78;;
53503;SDS011;39387;50.998;22.340;2022-10-17T01:05:05;8.63;;;5.97;;
53503;SDS011;39387;50.998;22.340;2022-10-17T01:07:33;9.63;;;6.13;;
53503;SDS011;39387;50.998;22.340;2022-10-17T01:10:02;9.60;;;6.20;;
53503;SDS011;39387;50.998;22.340;2022-10-17T01:12:31;8.15;;;5.53;;
53503;SDS011;39387;50.998;22.340;2022-10-17T01:15:08;8.85;;;6.18;;
53503;SDS011;39387;50.998;22.340;2022-10-17T01:17:40;8.05;;;5.63;;
53503;SDS011;39387;50.998;22.340;2022-10-17T01:23:17;11.00;;;6.65;;
53503;SDS011;39387;50.998;22.340;2022-10-17T01:25:54;9.13;;;6.22;;
53503;SDS011;39387;50.998;22.340;2022-10-17T01:28:30;8.82;;;6.22;;
53503;SDS011;39387;50.998;22.340;2022-10-17T01:31:07;9.10;;;6.10;;
53503;SDS011;39387;50.998;22.340;2022-10-17T01:36:30;8.52;;;5.78;;
53503;SDS011;39387;50.998;22.340;2022-10-17T01:39:04;9.10;;;5.70;;
53503;SDS011;39387;50.998;22.340;2022-10-17T01:41:37;10.73;;;6.70;;
53503;SDS011;39387;50.998;22.340;2022-10-17T01:44:08;8.98;;;6.07;;
53503;SDS011;39387;50.998;22.340;2022-10-17T01:46:40;9.75;;;6.18;;
53503;SDS011;39387;50.998;22.340;2022-10-17T01:49:09;9.57;;;5.72;;
53503;SDS011;39387;50.998;22.340;2022-10-17T01:51:39;8.75;;;6.03;;
53503;SDS011;39387;50.998;22.340;2022-10-17T01:54:09;8.82;;;6.40;;
53503;SDS011;39387;50.998;22.340;2022-10-17T01:56:38;10.38;;;6.53;;
53503;SDS011;39387;50.998;22.340;2022-10-17T01:59:08;9.63;;;6.15;;
53503;SDS011;39387;50.998;22.340;2022-10-17T02:01:39;9.75;;;6.60;;
53503;SDS011;39387;50.998;22.340;2022-10-17T02:04:07;9.95;;;6.28;;
53503;SDS011;39387;50.998;22.340;2022-10-17T02:06:35;9.05;;;5.90;;
53503;SDS011;39387;50.998;22.340;2022-10-17T02:09:13;8.60;;;6.07;;
53503;SDS011;39387;50.998;22.340;2022-10-17T02:11:43;10.40;;;6.30;;
53503;SDS011;39387;50.998;22.340;2022-10-17T02:14:17;11.48;;;6.45;;
53503;SDS011;39387;50.998;22.340;2022-10-17T02:16:50;9.65;;;6.05;;
53503;SDS011;39387;50.998;22.340;2022-10-17T02:19:29;8.90;;;6.22;;
53503;SDS011;39387;50.998;22.340;2022-10-17T02:24:36;8.73;;;5.70;;
53503;SDS011;39387;50.998;22.340;2022-10-17T02:27:11;9.18;;;6.35;;
53503;SDS011;39387;50.998;22.340;2022-10-17T02:29:43;11.13;;;6.28;;
53503;SDS011;39387;50.998;22.340;2022-10-17T02:32:15;9.65;;;6.18;;
53503;SDS011;39387;50.998;22.340;2022-10-17T02:34:46;10.32;;;6.30;;
53503;SDS011;39387;50.998;22.340;2022-10-17T02:37:17;9.73;;;6.63;;
53503;SDS011;39387;50.998;22.340;2022-10-17T02:39:45;11.05;;;6.57;;
53503;SDS011;39387;50.998;22.340;2022-10-17T02:42:13;11.95;;;7.10;;
53503;SDS011;39387;50.998;22.340;2022-10-17T02:44:42;10.90;;;6.43;;
53503;SDS011;39387;50.998;22.340;2022-10-17T02:47:11;7.57;;;5.97;;
53503;SDS011;39387;50.998;22.340;2022-10-17T02:49:46;10.23;;;6.20;;
53503;SDS011;39387;50.998;22.340;2022-10-17T02:52:18;10.82;;;6.05;;
53503;SDS011;39387;50.998;22.340;2022-10-17T02:54:50;11.30;;;6.72;;
53503;SDS011;39387;50.998;22.340;2022-10-17T02:59:47;11.23;;;6.47;;
53503;SDS011;39387;50.998;22.340;2022-10-17T03:02:17;10.20;;;6.40;;
53503;SDS011;39387;50.998;22.340;2022-10-17T03:04:45;9.35;;;6.35;;
53503;SDS011;39387;50.998;22.340;2022-10-17T03:07:12;10.60;;;6.18;;
53503;SDS011;39387;50.998;22.340;2022-10-17T03:09:40;12.00;;;7.00;;
53503;SDS011;39387;50.998;22.340;2022-10-17T03:12:07;10.82;;;6.97;;
53503;SDS011;39387;50.998;22.340;2022-10-17T03:14:34;11.30;;;7.13;;
53503;SDS011;39387;50.998;22.340;2022-10-17T03:17:02;11.77;;;7.20;;
53503;SDS011;39387;50.998;22.340;2022-10-17T03:19:30;13.68;;;6.93;;
53503;SDS011;39387;50.998;22.340;2022-10-17T03:21:58;10.13;;;6.32;;
53503;SDS011;39387;50.998;22.340;2022-10-17T03:24:25;11.68;;;6.55;;
53503;SDS011;39387;50.998;22.340;2022-10-17T03:26:53;8.50;;;5.80;;
53503;SDS011;39387;50.998;22.340;2022-10-17T03:29:20;9.55;;;6.15;;
53503;SDS011;39387;50.998;22.340;2022-10-17T03:31:47;12.30;;;7.13;;
53503;SDS011;39387;50.998;22.340;2022-10-17T03:34:15;10.65;;;7.00;;
53503;SDS011;39387;50.998;22.340;2022-10-17T03:36:44;10.52;;;6.32;;
53503;SDS011;39387;50.998;22.340;2022-10-17T03:39:12;9.57;;;6.18;;
53503;SDS011;39387;50.998;22.340;2022-10-17T03:41:39;9.40;;;6.30;;
53503;SDS011;39387;50.998;22.340;2022-10-17T03:44:06;12.00;;;7.35;;
53503;SDS011;39387;50.998;22.340;2022-10-17T03:46:34;11.35;;;6.88;;
53503;SDS011;39387;50.998;22.340;2022-10-17T03:49:01;11.80;;;6.78;;
53503;SDS011;39387;50.998;22.340;2022-10-17T03:51:28;13.57;;;7.28;;
53503;SDS011;39387;50.998;22.340;2022-10-17T03:53:57;11.68;;;6.85;;
53503;SDS011;39387;50.998;22.340;2022-10-17T03:56:25;9.30;;;6.22;;
53503;SDS011;39387;50.998;22.340;2022-10-17T03:58:52;10.02;;;6.43;;
53503;SDS011;39387;50.998;22.340;2022-10-17T04:01:20;9.20;;;6.25;;
53503;SDS011;39387;50.998;22.340;2022-10-17T04:03:48;9.52;;;6.22;;
53503;SDS011;39387;50.998;22.340;2022-10-17T04:06:16;11.50;;;6.60;;
53503;SDS011;39387;50.998;22.340;2022-10-17T04:08:43;12.23;;;6.45;;
53503;SDS011;39387;50.998;22.340;2022-10-17T04:11:14;10.85;;;7.05;;
53503;SDS011;39387;50.998;22.340;2022-10-17T04:13:42;12.32;;;7.57;;
53503;SDS011;39387;50.998;22.340;2022-10-17T04:16:10;12.90;;;7.80;;
53503;SDS011;39387;50.998;22.340;2022-10-17T04:18:38;10.18;;;7.30;;
53503;SDS011;39387;50.998;22.340;2022-10-17T04:21:06;11.00;;;6.38;;
53503;SDS011;39387;50.998;22.340;2022-10-17T04:23:34;9.80;;;5.97;;
53503;SDS011;39387;50.998;22.340;2022-10-17T04:26:02;11.18;;;6.85;;
53503;SDS011;39387;50.998;22.340;2022-10-17T04:28:31;10.93;;;6.15;;
53503;SDS011;39387;50.998;22.340;2022-10-17T04:31:00;12.90;;;7.43;;
53503;SDS011;39387;50.998;22.340;2022-10-17T04:33:28;11.07;;;7.15;;
53503;SDS011;39387;50.998;22.340;2022-10-17T04:35:56;12.63;;;7.07;;
53503;SDS011;39387;50.998;22.340;2022-10-17T04:38:23;11.52;;;6.90;;
53503;SDS011;39387;50.998;22.340;2022-10-17T04:40:51;11.30;;;6.35;;
53503;SDS011;39387;50.998;22.340;2022-10-17T04:43:19;11.25;;;7.13;;
53503;SDS011;39387;50.998;22.340;2022-10-17T04:45:48;12.50;;;7.70;;
53503;SDS011;39387;50.998;22.340;2022-10-17T04:48:15;10.57;;;6.45;;
53503;SDS011;39387;50.998;22.340;2022-10-17T04:50:51;9.77;;;6.85;;
53503;SDS011;39387;50.998;22.340;2022-10-17T04:53:19;10.80;;;7.03;;
53503;SDS011;39387;50.998;22.340;2022-10-17T04:55:46;12.85;;;7.88;;
53503;SDS011;39387;50.998;22.340;2022-10-17T04:58:14;12.05;;;7.72;;
53503;SDS011;39387;50.998;22.340;2022-10-17T05:00:41;12.95;;;7.78;;
53503;SDS011;39387;50.998;22.340;2022-10-17T05:03:10;11.98;;;7.15;;
53503;SDS011;39387;50.998;22.340;2022-10-17T05:05:38;12.32;;;8.02;;
53503;SDS011;39387;50.998;22.340;2022-10-17T05:08:06;13.52;;;7.43;;
53503;SDS011;39387;50.998;22.340;2022-10-17T05:10:37;14.13;;;8.10;;
53503;SDS011;39387;50.998;22.340;2022-10-17T05:13:05;16.35;;;8.68;;
53503;SDS011;39387;50.998;22.340;2022-10-17T05:15:33;15.00;;;8.13;;
53503;SDS011;39387;50.998;22.340;2022-10-17T05:18:01;11.77;;;7.68;;
53503;SDS011;39387;50.998;22.340;2022-10-17T05:20:30;17.05;;;8.80;;
53503;SDS011;39387;50.998;22.340;2022-10-17T05:22:57;13.85;;;8.38;;
53503;SDS011;39387;50.998;22.340;2022-10-17T05:25:25;11.38;;;7.65;;
53503;SDS011;39387;50.998;22.340;2022-10-17T05:27:52;12.32;;;7.97;;
53503;SDS011;39387;50.998;22.340;2022-10-17T05:30:20;13.40;;;7.60;;
53503;SDS011;39387;50.998;22.340;2022-10-17T05:32:49;12.88;;;7.60;;
53503;SDS011;39387;50.998;22.340;2022-10-17T05:35:18;11.10;;;6.72;;
53503;SDS011;39387;50.998;22.340;2022-10-17T05:37:47;11.65;;;7.35;;
53503;SDS011;39387;50.998;22.340;2022-10-17T05:40:14;12.15;;;7.22;;
53503;SDS011;39387;50.998;22.340;2022-10-17T05:42:44;11.10;;;7.28;;
53503;SDS011;39387;50.998;22.340;2022-10-17T05:45:12;14.95;;;8.70;;
53503;SDS011;39387;50.998;22.340;2022-10-17T05:47:40;12.45;;;7.65;;
53503;SDS011;39387;50.998;22.340;2022-10-17T05:50:08;13.50;;;7.80;;
53503;SDS011;39387;50.998;22.340;2022-10-17T05:52:35;16.50;;;8.73;;
53503;SDS011;39387;50.998;22.340;2022-10-17T05:55:05;12.98;;;7.35;;
53503;SDS011;39387;50.998;22.340;2022-10-17T05:57:33;12.00;;;7.47;;
53503;SDS011;39387;50.998;22.340;2022-10-17T06:00:00;11.93;;;7.13;;
53503;SDS011;39387;50.998;22.340;2022-10-17T06:02:28;11.25;;;6.78;;
53503;SDS011;39387;50.998;22.340;2022-10-17T06:04:55;11.13;;;7.35;;
53503;SDS011;39387;50.998;22.340;2022-10-17T06:07:23;10.30;;;6.95;;
53503;SDS011;39387;50.998;22.340;2022-10-17T06:09:50;12.65;;;7.45;;
53503;SDS011;39387;50.998;22.340;2022-10-17T06:12:19;13.43;;;8.00;;
53503;SDS011;39387;50.998;22.340;2022-10-17T06:14:46;15.20;;;8.32;;
53503;SDS011;39387;50.998;22.340;2022-10-17T06:17:13;11.93;;;7.72;;
53503;SDS011;39387;50.998;22.340;2022-10-17T06:19:41;11.55;;;7.40;;
53503;SDS011;39387;50.998;22.340;2022-10-17T06:22:09;10.63;;;7.18;;
53503;SDS011;39387;50.998;22.340;2022-10-17T06:24:36;10.98;;;7.25;;
53503;SDS011;39387;50.998;22.340;2022-10-17T06:27:03;10.98;;;6.88;;
53503;SDS011;39387;50.998;22.340;2022-10-17T06:29:33;9.95;;;6.13;;
53503;SDS011;39387;50.998;22.340;2022-10-17T06:32:00;9.02;;;6.43;;
53503;SDS011;39387;50.998;22.340;2022-10-17T06:34:28;11.90;;;6.13;;
53503;SDS011;39387;50.998;22.340;2022-10-17T06:36:55;8.90;;;6.38;;
53503;SDS011;39387;50.998;22.340;2022-10-17T06:39:23;8.98;;;5.78;;
53503;SDS011;39387;50.998;22.340;2022-10-17T06:41:51;8.43;;;6.10;;
53503;SDS011;39387;50.998;22.340;2022-10-17T06:44:19;8.65;;;5.28;;
53503;SDS011;39387;50.998;22.340;2022-10-17T06:46:48;8.93;;;5.60;;
53503;SDS011;39387;50.998;22.340;2022-10-17T06:49:15;8.52;;;5.65;;
53503;SDS011;39387;50.998;22.340;2022-10-17T06:51:43;7.25;;;5.75;;
53503;SDS011;39387;50.998;22.340;2022-10-17T06:54:10;7.75;;;5.93;;
53503;SDS011;39387;50.998;22.340;2022-10-17T06:56:37;7.93;;;5.45;;
53503;SDS011;39387;50.998;22.340;2022-10-17T06:59:05;8.02;;;5.82;;
53503;SDS011;39387;50.998;22.340;2022-10-17T07:01:32;7.65;;;5.43;;
53503;SDS011;39387;50.998;22.340;2022-10-17T07:04:01;9.10;;;6.00;;
53503;SDS011;39387;50.998;22.340;2022-10-17T07:06:28;8.02;;;5.53;;
53503;SDS011;39387;50.998;22.340;2022-10-17T07:08:56;7.40;;;5.35;;
53503;SDS011;39387;50.998;22.340;2022-10-17T07:11:25;7.47;;;5.47;;
53503;SDS011;39387;50.998;22.340;2022-10-17T07:13:52;9.15;;;5.47;;
53503;SDS011;39387;50.998;22.340;2022-10-17T07:16:20;6.40;;;4.93;;
53503;SDS011;39387;50.998;22.340;2022-10-17T07:18:48;8.52;;;5.50;;
53503;SDS011;39387;50.998;22.340;2022-10-17T07:21:16;8.00;;;6.05;;
53503;SDS011;39387;50.998;22.340;2022-10-17T07:23:44;6.80;;;4.75;;
53503;SDS011;39387;50.998;22.340;2022-10-17T07:26:12;6.97;;;5.03;;
53503;SDS011;39387;50.998;22.340;2022-10-17T07:28:42;6.38;;;4.55;;
53503;SDS011;39387;50.998;22.340;2022-10-17T07:31:11;6.80;;;4.80;;
53503;SDS011;39387;50.998;22.340;2022-10-17T07:33:40;7.47;;;5.57;;
53503;SDS011;39387;50.998;22.340;2022-10-17T07:36:08;6.45;;;5.15;;
53503;SDS011;39387;50.998;22.340;2022-10-17T07:38:37;7.70;;;5.10;;
53503;SDS011;39387;50.998;22.340;2022-10-17T07:41:05;7.57;;;5.28;;
53503;SDS011;39387;50.998;22.340;2022-10-17T07:43:34;8.20;;;5.88;;
53503;SDS011;39387;50.998;22.340;2022-10-17T07:46:02;6.70;;;5.28;;
53503;SDS011;39387;50.998;22.340;2022-10-17T07:48:30;7.47;;;5.43;;
53503;SDS011;39387;50.998;22.340;2022-10-17T07:50:59;5.97;;;4.78;;
53503;SDS011;39387;50.998;22.340;2022-10-17T07:53:28;8.80;;;5.90;;
53503;SDS011;39387;50.998;22.340;2022-10-17T07:55:57;6.65;;;5.43;;
53503;SDS011;39387;50.998;22.340;2022-10-17T07:58:24;7.75;;;5.28;;
53503;SDS011;39387;50.998;22.340;2022-10-17T08:00:53;7.65;;;5.68;;
53503;SDS011;39387;50.998;22.340;2022-10-17T08:03:20;6.32;;;4.70;;
53503;SDS011;39387;50.998;22.340;2022-10-17T08:05:48;6.43;;;5.18;;
53503;SDS011;39387;50.998;22.340;2022-10-17T08:08:15;6.47;;;4.90;;
53503;SDS011;39387;50.998;22.340;2022-10-17T08:10:42;5.10;;;4.53;;
53503;SDS011;39387;50.998;22.340;2022-10-17T08:13:11;7.85;;;5.20;;
53503;SDS011;39387;50.998;22.340;2022-10-17T08:15:38;6.35;;;5.10;;
53503;SDS011;39387;50.998;22.340;2022-10-17T08:18:06;6.70;;;5.15;;
53503;SDS011;39387;50.998;22.340;2022-10-17T08:20:34;6.75;;;5.53;;
53503;SDS011;39387;50.998;22.340;2022-10-17T08:23:01;7.65;;;4.93;;
53503;SDS011;39387;50.998;22.340;2022-10-17T08:25:32;6.07;;;5.00;;
53503;SDS011;39387;50.998;22.340;2022-10-17T08:28:00;10.02;;;5.35;;
53503;SDS011;39387;50.998;22.340;2022-10-17T08:30:28;7.00;;;5.47;;
53503;SDS011;39387;50.998;22.340;2022-10-17T08:32:56;7.15;;;5.13;;
53503;SDS011;39387;50.998;22.340;2022-10-17T08:35:23;7.32;;;5.07;;
53503;SDS011;39387;50.998;22.340;2022-10-17T08:37:51;8.68;;;5.32;;
53503;SDS011;39387;50.998;22.340;2022-10-17T08:40:20;7.43;;;5.28;;
53503;SDS011;39387;50.998;22.340;2022-10-17T08:42:58;7.43;;;6.05;;
53503;SDS011;39387;50.998;22.340;2022-10-17T08:45:40;7.15;;;5.28;;
53503;SDS011;39387;50.998;22.340;2022-10-17T08:48:11;10.25;;;6.05;;
53503;SDS011;39387;50.998;22.340;2022-10-17T08:50:44;9.63;;;6.50;;
53503;SDS011;39387;50.998;22.340;2022-10-17T08:53:16;8.23;;;5.90;;
53503;SDS011;39387;50.998;22.340;2022-10-17T08:55:46;7.80;;;5.80;;
53503;SDS011;39387;50.998;22.340;2022-10-17T08:58:16;7.30;;;5.38;;
53503;SDS011;39387;50.998;22.340;2022-10-17T09:00:49;8.40;;;5.30;;
53503;SDS011;39387;50.998;22.340;2022-10-17T09:03:23;8.60;;;6.20;;
53503;SDS011;39387;50.998;22.340;2022-10-17T09:06:07;8.27;;;5.60;;
53503;SDS011;39387;50.998;22.340;2022-10-17T09:08:41;7.43;;;5.93;;
53503;SDS011;39387;50.998;22.340;2022-10-17T09:11:16;7.38;;;6.10;;
53503;SDS011;39387;50.998;22.340;2022-10-17T09:13:55;7.45;;;5.70;;
53503;SDS011;39387;50.998;22.340;2022-10-17T09:16:44;8.43;;;6.10;;
53503;SDS011;39387;50.998;22.340;2022-10-17T09:19:18;7.25;;;5.18;;
53503;SDS011;39387;50.998;22.340;2022-10-17T09:21:48;7.70;;;5.57;;
53503;SDS011;39387;50.998;22.340;2022-10-17T09:24:19;8.20;;;5.95;;
53503;SDS011;39387;50.998;22.340;2022-10-17T09:26:50;7.47;;;5.63;;
53503;SDS011;39387;50.998;22.340;2022-10-17T09:29:19;5.63;;;4.93;;
53503;SDS011;39387;50.998;22.340;2022-10-17T09:34:20;7.20;;;5.55;;
53503;SDS011;39387;50.998;22.340;2022-10-17T09:36:47;6.65;;;5.53;;
53503;SDS011;39387;50.998;22.340;2022-10-17T09:39:15;6.72;;;5.60;;
53503;SDS011;39387;50.998;22.340;2022-10-17T09:41:46;6.97;;;5.53;;
53503;SDS011;39387;50.998;22.340;2022-10-17T09:44:18;7.10;;;5.30;;
53503;SDS011;39387;50.998;22.340;2022-10-17T09:46:50;7.88;;;5.07;;
53503;SDS011;39387;50.998;22.340;2022-10-17T09:49:25;8.90;;;5.70;;
53503;SDS011;39387;50.998;22.340;2022-10-17T09:51:57;8.02;;;5.55;;
53503;SDS011;39387;50.998;22.340;2022-10-17T09:54:27;10.60;;;6.60;;
53503;SDS011;39387;50.998;22.340;2022-10-17T09:57:06;7.70;;;5.53;;
53503;SDS011;39387;50.998;22.340;2022-10-17T09:59:35;7.90;;;5.43;;
53503;SDS011;39387;50.998;22.340;2022-10-17T10:02:11;9.02;;;6.32;;
53503;SDS011;39387;50.998;22.340;2022-10-17T10:07:29;10.27;;;6.28;;
53503;SDS011;39387;50.998;22.340;2022-10-17T10:09:58;7.68;;;6.10;;
53503;SDS011;39387;50.998;22.340;2022-10-17T10:12:28;7.85;;;5.63;;
53503;SDS011;39387;50.998;22.340;2022-10-17T10:14:57;6.63;;;5.80;;
53503;SDS011;39387;50.998;22.340;2022-10-17T10:17:28;6.72;;;5.70;;
53503;SDS011;39387;50.998;22.340;2022-10-17T10:20:01;7.47;;;5.72;;
53503;SDS011;39387;50.998;22.340;2022-10-17T10:23:04;9.40;;;6.13;;
53503;SDS011;39387;50.998;22.340;2022-10-17T10:25:32;8.00;;;5.35;;
53503;SDS011;39387;50.998;22.340;2022-10-17T10:28:00;8.52;;;5.55;;
53503;SDS011;39387;50.998;22.340;2022-10-17T10:30:29;8.02;;;5.65;;
53503;SDS011;39387;50.998;22.340;2022-10-17T10:32:58;8.00;;;5.78;;
53503;SDS011;39387;50.998;22.340;2022-10-17T10:35:29;9.75;;;6.15;;
53503;SDS011;39387;50.998;22.340;2022-10-17T10:37:58;8.05;;;5.97;;
53503;SDS011;39387;50.998;22.340;2022-10-17T10:40:28;7.55;;;6.25;;
53503;SDS011;39387;50.998;22.340;2022-10-17T10:42:58;9.18;;;6.32;;
53503;SDS011;39387;50.998;22.340;2022-10-17T10:45:27;6.72;;;5.50;;
53503;SDS011;39387;50.998;22.340;2022-10-17T10:47:55;7.05;;;5.63;;
53503;SDS011;39387;50.998;22.340;2022-10-17T10:50:28;7.15;;;5.20;;
53503;SDS011;39387;50.998;22.340;2022-10-17T10:53:06;9.63;;;5.70;;
53503;SDS011;39387;50.998;22.340;2022-10-17T10:55:41;8.13;;;5.70;;
53503;SDS011;39387;50.998;22.340;2022-10-17T10:58:15;7.97;;;5.90;;
53503;SDS011;39387;50.998;22.340;2022-10-17T11:00:48;6.78;;;5.35;;
53503;SDS011;39387;50.998;22.340;2022-10-17T11:03:17;7.35;;;5.32;;
53503;SDS011;39387;50.998;22.340;2022-10-17T11:05:47;6.37;;;4.90;;
53503;SDS011;39387;50.998;22.340;2022-10-17T11:08:18;6.57;;;5.32;;
53503;SDS011;39387;50.998;22.340;2022-10-17T11:10:57;6.53;;;5.13;;
53503;SDS011;39387;50.998;22.340;2022-10-17T11:13:29;7.57;;;5.32;;
53503;SDS011;39387;50.998;22.340;2022-10-17T11:15:58;7.93;;;5.80;;
53503;SDS011;39387;50.998;22.340;2022-10-17T11:18:34;6.55;;;4.90;;
53503;SDS011;39387;50.998;22.340;2022-10-17T11:21:11;6.93;;;5.18;;
53503;SDS011;39387;50.998;22.340;2022-10-17T11:23:43;8.30;;;5.80;;
53503;SDS011;39387;50.998;22.340;2022-10-17T11:26:15;7.85;;;5.80;;
53503;SDS011;39387;50.998;22.340;2022-10-17T11:28:50;7.30;;;5.32;;
53503;SDS011;39387;50.998;22.340;2022-10-17T11:31:18;7.40;;;5.43;;
53503;SDS011;39387;50.998;22.340;2022-10-17T11:33:49;8.32;;;5.75;;
53503;SDS011;39387;50.998;22.340;2022-10-17T11:36:20;7.18;;;5.45;;
53503;SDS011;39387;50.998;22.340;2022-10-17T11:38:50;7.25;;;5.32;;
53503;SDS011;39387;50.998;22.340;2022-10-17T11:41:21;6.85;;;5.70;;
53503;SDS011;39387;50.998;22.340;2022-10-17T11:43:53;6.95;;;5.55;;
53503;SDS011;39387;50.998;22.340;2022-10-17T11:46:23;7.65;;;5.70;;
53503;SDS011;39387;50.998;22.340;2022-10-17T11:48:56;7.05;;;5.30;;
53503;SDS011;39387;50.998;22.340;2022-10-17T11:51:30;7.40;;;5.72;;
53503;SDS011;39387;50.998;22.340;2022-10-17T11:54:03;7.65;;;5.80;;
53503;SDS011;39387;50.998;22.340;2022-10-17T11:56:37;8.63;;;6.30;;
53503;SDS011;39387;50.998;22.340;2022-10-17T12:02:07;8.30;;;5.95;;
53503;SDS011;39387;50.998;22.340;2022-10-17T12:04:39;7.80;;;6.22;;
53503;SDS011;39387;50.998;22.340;2022-10-17T12:07:16;8.13;;;6.25;;
53503;SDS011;39387;50.998;22.340;2022-10-17T12:09:49;8.27;;;6.47;;
53503;SDS011;39387;50.998;22.340;2022-10-17T12:12:24;8.05;;;5.60;;
53503;SDS011;39387;50.998;22.340;2022-10-17T12:14:53;7.45;;;5.78;;
53503;SDS011;39387;50.998;22.340;2022-10-17T12:17:39;6.90;;;5.90;;
53503;SDS011;39387;50.998;22.340;2022-10-17T12:23:25;8.95;;;6.38;;
53503;SDS011;39387;50.998;22.340;2022-10-17T12:25:53;92.10;;;51.47;;
53503;SDS011;39387;50.998;22.340;2022-10-17T12:28:26;28.92;;;19.05;;
53503;SDS011;39387;50.998;22.340;2022-10-17T12:30:56;20.55;;;13.93;;
53503;SDS011;39387;50.998;22.340;2022-10-17T12:33:32;12.30;;;8.60;;
53503;SDS011;39387;50.998;22.340;2022-10-17T12:42:43;7.57;;;6.05;;
53503;SDS011;39387;50.998;22.340;2022-10-17T12:51:11;7.63;;;6.15;;
53503;SDS011;39387;50.998;22.340;2022-10-17T12:53:40;8.45;;;6.25;;
53503;SDS011;39387;50.998;22.340;2022-10-17T12:56:13;23.63;;;16.77;;
53503;SDS011;39387;50.998;22.340;2022-10-17T12:58:43;93.22;;;60.22;;
53503;SDS011;39387;50.998;22.340;2022-10-17T13:01:13;73.25;;;49.83;;
53503;SDS011;39387;50.998;22.340;2022-10-17T13:03:44;79.85;;;54.45;;
53503;SDS011;39387;50.998;22.340;2022-10-17T13:06:14;50.42;;;34.97;;
53503;SDS011;39387;50.998;22.340;2022-10-17T13:08:44;26.27;;;18.85;;
53503;SDS011;39387;50.998;22.340;2022-10-17T13:11:15;22.63;;;17.23;;
53503;SDS011;39387;50.998;22.340;2022-10-17T13:13:49;26.15;;;18.77;;
53503;SDS011;39387;50.998;22.340;2022-10-17T13:16:29;44.75;;;32.65;;
53503;SDS011;39387;50.998;22.340;2022-10-17T13:18:57;45.88;;;33.47;;
53503;SDS011;39387;50.998;22.340;2022-10-17T13:21:26;37.30;;;29.02;;
53503;SDS011;39387;50.998;22.340;2022-10-17T13:23:53;22.50;;;16.58;;
53503;SDS011;39387;50.998;22.340;2022-10-17T13:26:23;15.98;;;12.50;;
53503;SDS011;39387;50.998;22.340;2022-10-17T13:29:09;12.63;;;10.90;;
53503;SDS011;39387;50.998;22.340;2022-10-17T13:31:40;9.65;;;8.05;;
53503;SDS011;39387;50.998;22.340;2022-10-17T13:34:14;9.10;;;7.38;;
53503;SDS011;39387;50.998;22.340;2022-10-17T13:36:44;9.70;;;6.78;;
53503;SDS011;39387;50.998;22.340;2022-10-17T13:39:13;7.93;;;6.63;;
53503;SDS011;39387;50.998;22.340;2022-10-17T13:41:43;8.75;;;6.32;;
53503;SDS011;39387;50.998;22.340;2022-10-17T13:44:14;10.90;;;7.38;;
53503;SDS011;39387;50.998;22.340;2022-10-17T13:46:43;9.95;;;6.97;;
53503;SDS011;39387;50.998;22.340;2022-10-17T13:49:14;8.40;;;6.28;;
53503;SDS011;39387;50.998;22.340;2022-10-17T13:51:45;7.70;;;6.63;;
53503;SDS011;39387;50.998;22.340;2022-10-17T13:54:16;7.93;;;6.15;;
53503;SDS011;39387;50.998;22.340;2022-10-17T13:56:46;7.68;;;5.97;;
53503;SDS011;39387;50.998;22.340;2022-10-17T13:59:20;8.75;;;5.90;;
53503;SDS011;39387;50.998;22.340;2022-10-17T14:01:50;9.48;;;6.57;;
53503;SDS011;39387;50.998;22.340;2022-10-17T14:04:17;12.88;;;7.65;;
53503;SDS011;39387;50.998;22.340;2022-10-17T14:06:45;13.30;;;7.78;;
53503;SDS011;39387;50.998;22.340;2022-10-17T14:09:17;9.82;;;6.78;;
53503;SDS011;39387;50.998;22.340;2022-10-17T14:11:55;8.65;;;6.20;;
53503;SDS011;39387;50.998;22.340;2022-10-17T14:14:26;8.90;;;6.38;;
53503;SDS011;39387;50.998;22.340;2022-10-17T14:16:54;7.25;;;5.68;;
53503;SDS011;39387;50.998;22.340;2022-10-17T14:19:23;6.93;;;5.57;;
53503;SDS011;39387;50.998;22.340;2022-10-17T14:21:53;6.55;;;5.32;;
53503;SDS011;39387;50.998;22.340;2022-10-17T14:24:30;6.72;;;5.30;;
53503;SDS011;39387;50.998;22.340;2022-10-17T14:27:01;7.15;;;5.10;;
53503;SDS011;39387;50.998;22.340;2022-10-17T14:29:31;6.97;;;5.32;;
53503;SDS011;39387;50.998;22.340;2022-10-17T14:32:14;6.07;;;5.18;;
53503;SDS011;39387;50.998;22.340;2022-10-17T14:34:42;8.57;;;5.43;;
53503;SDS011;39387;50.998;22.340;2022-10-17T14:37:11;6.40;;;5.00;;
53503;SDS011;39387;50.998;22.340;2022-10-17T14:39:57;6.43;;;5.20;;
53503;SDS011;39387;50.998;22.340;2022-10-17T14:42:26;7.07;;;5.35;;
53503;SDS011;39387;50.998;22.340;2022-10-17T14:44:56;7.32;;;5.35;;
53503;SDS011;39387;50.998;22.340;2022-10-17T14:47:29;6.47;;;5.13;;
53503;SDS011;39387;50.998;22.340;2022-10-17T14:50:04;5.68;;;4.97;;
53503;SDS011;39387;50.998;22.340;2022-10-17T14:52:33;7.50;;;5.45;;
53503;SDS011;39387;50.998;22.340;2022-10-17T14:55:15;6.82;;;5.25;;
53503;SDS011;39387;50.998;22.340;2022-10-17T14:57:48;7.88;;;5.10;;
53503;SDS011;39387;50.998;22.340;2022-10-17T15:00:17;6.63;;;5.13;;
53503;SDS011;39387;50.998;22.340;2022-10-17T15:02:47;7.25;;;5.13;;
53503;SDS011;39387;50.998;22.340;2022-10-17T15:05:15;7.80;;;5.63;;
53503;SDS011;39387;50.998;22.340;2022-10-17T15:07:44;6.55;;;5.03;;
53503;SDS011;39387;50.998;22.340;2022-10-17T15:10:22;7.90;;;5.82;;
53503;SDS011;39387;50.998;22.340;2022-10-17T15:12:52;7.38;;;5.20;;
53503;SDS011;39387;50.998;22.340;2022-10-17T15:15:21;6.95;;;5.15;;
53503;SDS011;39387;50.998;22.340;2022-10-17T15:17:48;7.30;;;5.40;;
53503;SDS011;39387;50.998;22.340;2022-10-17T15:20:16;6.50;;;4.95;;